Time;durP1;ratioP1;P1;durP2;ratioP2;P2;SDS_P1;SDS_P2;PMS_P1;PMS_P2;Temp;Humidity;BMP_temperature;BMP_pressure;BME280_temperature;BME280_humidity;BME280_pressure;Samples;Min_cycle;Max_cycle;Signal;HPM_P1;HPM_P2
2022/07/12 00:02:01;;;;;;;64.13;61.47;;;20.70;66.90;;;;;;5079868;28;20036;-83
2022/07/12 00:04:27;;;;;;;66.75;64.05;;;;;;;;;;5068947;28;20615;-84
2022/07/12 00:06:53;;;;;;;63.92;61.33;;;;;;;;;;5066927;28;20033;-83
2022/07/12 00:09:19;;;;;;;58.97;56.45;;;;;;;;;;5080496;28;20120;-82
2022/07/12 00:11:45;;;;;;;58.65;56.28;;;;;;;;;;5069989;28;20029;-82
2022/07/12 00:14:11;;;;;;;60.80;58.30;;;;;;;;;;5070581;28;20070;-83
2022/07/12 00:16:37;;;;;;;62.53;59.70;;;;;;;;;;5066425;28;20036;-82
2022/07/12 00:19:03;;;;;;;61.75;59.25;;;;;;;;;;5064356;28;20071;-82
2022/07/12 00:21:29;;;;;;;55.90;53.63;;;;;;;;;;5068545;28;20027;-83
2022/07/12 00:23:55;;;;;;;61.33;58.60;;;;;;;;;;5070099;28;20024;-83
2022/07/12 00:26:22;;;;;;;65.20;62.50;;;;;;;;;;5078768;28;20437;-82
2022/07/12 00:28:48;;;;;;;66.13;63.38;;;20.80;66.70;;;;;;5065450;28;20430;-83
2022/07/12 00:31:15;;;;;;;58.17;55.78;;;;;;;;;;5073393;28;20428;-83
2022/07/12 00:33:41;;;;;;;61.13;58.50;;;;;;;;;;5067040;28;20025;-82
2022/07/12 00:36:07;;;;;;;64.63;61.92;;;;;;;;;;5068622;28;20067;-84
2022/07/12 00:38:33;;;;;;;61.70;59.10;;;;;;;;;;5080424;28;20071;-82
2022/07/12 00:40:59;;;;;;;60.88;58.38;;;;;;;;;;5066967;28;20056;-82
2022/07/12 00:43:25;;;;;;;62.08;59.47;;;;;;;;;;5069136;28;20474;-83
2022/07/12 00:45:51;;;;;;;62.33;59.80;;;;;;;;;;5077187;28;20021;-83
2022/07/12 00:48:18;;;;;;;60.50;58.08;;;;;;;;;;5068264;28;20182;-84
2022/07/12 00:50:45;;;;;;;65.03;62.15;;;20.10;69.30;;;;;;5074419;28;20017;-83
2022/07/12 00:53:12;;;;;;;;;;;20.30;68.80;;;;;;5068494;28;20067;-83
2022/07/12 00:55:38;;;;;;;58.05;55.58;;;;;;;;;;5066410;28;19939;-83
2022/07/12 00:58:04;;;;;;;67.22;64.43;;;;;;;;;;5068445;28;20072;-83
2022/07/12 01:00:30;;;;;;;71.25;68.30;;;;;;;;;;5065532;28;20021;-83
2022/07/12 01:02:57;;;;;;;66.53;63.67;;;20.40;68.10;;;;;;5069882;28;20056;-82
2022/07/12 01:05:23;;;;;;;61.72;59.13;;;;;;;;;;5067914;28;20025;-83
2022/07/12 01:07:50;;;;;;;68.88;65.85;;;20.20;69.10;;;;;;5075966;28;20453;-83
2022/07/12 01:10:16;;;;;;;69.45;66.45;;;;;;;;;;5064541;28;20051;-83
2022/07/12 01:12:42;;;;;;;67.18;64.35;;;;;;;;;;5065782;28;20025;-83
2022/07/12 01:15:09;;;;;;;64.25;61.55;;;;;;;;;;5068267;28;20033;-84
2022/07/12 01:17:35;;;;;;;66.85;64.13;;;;;;;;;;5065368;28;20043;-83
2022/07/12 01:20:01;;;;;;;68.93;66.05;;;20.30;68.30;;;;;;5069412;28;20035;-83
2022/07/12 01:22:30;;;;;;;63.35;60.60;;;;;;;;;;5071644;28;20649;-83
2022/07/12 01:24:56;;;;;;;61.38;58.67;;;;;;;;;;5068447;28;20598;-83
2022/07/12 01:27:22;;;;;;;64.00;61.35;;;;;;;;;;5063046;28;20090;-83
2022/07/12 01:29:48;;;;;;;66.00;63.20;;;;;;;;;;5064387;28;20029;-83
2022/07/12 01:32:26;;;;;;;66.05;63.30;;;;;;;;;;5066570;28;20097;-83
2022/07/12 01:35:14;;;;;;;59.00;56.58;;;19.80;69.80;;;;;;5065816;28;20039;-83
2022/07/12 01:37:42;;;;;;;66.30;63.42;;;19.90;70.00;;;;;;5063871;28;20040;-83
2022/07/12 01:40:08;;;;;;;;;;;20.00;70.10;;;;;;5064853;28;20017;-82
2022/07/12 01:42:34;;;;;;;62.30;59.45;;;;;;;;;;5068682;28;19912;-84
2022/07/12 01:45:01;;;;;;;62.40;59.80;;;;;;;;;;5072894;28;20399;-82
2022/07/12 01:47:31;;;;;;;61.17;58.67;;;19.90;70.00;;;;;;5066221;28;20097;-83
2022/07/12 01:49:57;;;;;;;62.83;60.13;;;;;;;;;;5065573;28;20098;-84
2022/07/12 01:52:23;;;;;;;59.03;56.58;;;;;;;;;;5062375;28;20048;-83
2022/07/12 01:54:49;;;;;;;59.00;56.50;;;;;;;;;;5068914;28;20032;-83
2022/07/12 01:57:15;;;;;;;65.80;63.05;;;;;;;;;;5079358;28;20044;-83
2022/07/12 01:59:41;;;;;;;64.35;61.63;;;19.80;71.10;;;;;;5068158;28;20119;-83
2022/07/12 02:02:08;;;;;;;63.20;60.53;;;;;;;;;;5076058;28;20490;-83
2022/07/12 02:04:34;;;;;;;64.25;61.50;;;;;;;;;;5070135;28;20028;-83
2022/07/12 02:07:00;;;;;;;62.45;59.75;;;;;;;;;;5063619;28;20024;-83
2022/07/12 02:09:26;;;;;;;66.53;63.60;;;;;;;;;;5069136;28;20051;-83
2022/07/12 02:11:53;;;;;;;64.93;62.10;;;;;;;;;;5066475;28;20402;-83
2022/07/12 02:14:19;;;;;;;64.15;61.53;;;;;;;;;;5066285;28;20052;-83
2022/07/12 02:16:45;;;;;;;61.25;58.75;;;;;;;;;;5072917;28;20482;-83
2022/07/12 02:19:12;;;;;;;66.28;63.53;;;19.80;71.30;;;;;;5072332;28;20024;-83
2022/07/12 02:21:38;;;;;;;64.38;61.63;;;;;;;;;;5064823;28;20674;-84
2022/07/12 02:24:04;;;;;;;62.38;59.40;;;;;;;;;;5064043;28;20388;-83
2022/07/12 02:26:33;;;;;;;28.33;27.20;;;20.00;69.60;;;;;;5069170;28;20070;-83
2022/07/12 02:28:59;;;;;;;69.43;66.50;;;;;;;;;;5063216;28;20112;-84
2022/07/12 02:31:25;;;;;;;65.10;62.40;;;;;;;;;;5068472;28;20389;-82
2022/07/12 02:33:51;;;;;;;65.25;62.38;;;;;;;;;;5071801;28;20100;-83
2022/07/12 02:36:18;;;;;;;68.20;65.38;;;;;;;;;;5066629;28;20598;-83
2022/07/12 02:38:43;;;;;;;63.92;61.25;;;;;;;;;;5066639;28;20033;-83
2022/07/12 02:41:09;;;;;;;68.90;65.95;;;;;;;;;;5076110;28;20042;-83
2022/07/12 02:43:35;;;;;;;70.10;67.10;;;;;;;;;;5068699;28;20129;-83
2022/07/12 02:46:06;;;;;;;64.38;61.58;;;;;;;;;;5065636;28;20100;-83
2022/07/12 02:48:32;;;;;;;64.88;62.17;;;;;;;;;;5063552;28;20465;-83
2022/07/12 02:50:59;;;;;;;69.03;66.18;;;19.60;70.70;;;;;;5066835;28;20032;-83
2022/07/12 02:53:25;;;;;;;72.90;69.90;;;;;;;;;;5068802;28;20040;-83
2022/07/12 02:55:51;;;;;;;69.55;66.65;;;;;;;;;;5073621;28;20046;-83
2022/07/12 02:58:17;;;;;;;69.75;66.85;;;;;;;;;;5066937;28;20044;-83
2022/07/12 03:00:44;;;;;;;77.22;73.80;;;;;;;;;;5066777;28;20410;-83
2022/07/12 03:03:11;;;;;;;71.15;68.13;;;;;;;;;;5064837;28;20060;-83
2022/07/12 03:05:37;;;;;;;75.40;72.23;;;;;;;;;;5066803;28;20031;-83
2022/07/12 03:08:04;;;;;;;73.50;70.40;;;;;;;;;;5066835;28;20047;-83
2022/07/12 03:10:30;;;;;;;73.28;70.22;;;;;;;;;;5067685;28;20032;-83
2022/07/12 03:12:56;;;;;;;73.50;70.43;;;;;;;;;;5074242;28;20027;-83
2022/07/12 03:15:22;;;;;;;75.15;72.03;;;;;;;;;;5076353;28;20036;-83
2022/07/12 03:17:48;;;;;;;72.10;69.18;;;;;;;;;;5067058;28;20159;-83
2022/07/12 03:20:14;;;;;;;76.82;73.60;;;;;;;;;;5073925;28;20444;-84
2022/07/12 03:22:46;;;;;;;75.25;71.97;;;;;;;;;;5061107;28;20032;-83
2022/07/12 03:25:12;;;;;;;72.78;69.65;;;;;;;;;;5060519;28;20025;-83
2022/07/12 03:27:38;;;;;;;71.18;68.28;;;;;;;;;;5062777;28;20066;-83
2022/07/12 03:30:05;;;;;;;74.35;70.82;;;;;;;;;;5076931;28;20033;-83
2022/07/12 03:32:31;;;;;;;71.28;68.35;;;19.20;91.80;;;;;;5066552;28;20021;-83
2022/07/12 03:34:57;;;;;;;71.45;68.45;;;;;;;;;;5066638;28;20031;-83
2022/07/12 03:37:23;;;;;;;73.25;70.28;;;;;;;;;;5066039;28;20548;-83
2022/07/12 03:39:49;;;;;;;72.88;69.78;;;;;;;;;;5062873;28;20706;-84
2022/07/12 03:42:15;;;;;;;68.55;65.65;;;;;;;;;;5065810;28;20106;-83
2022/07/12 03:44:41;;;;;;;69.03;65.60;;;;;;;;;;5063696;28;20955;-83
2022/07/12 03:47:07;;;;;;;70.32;67.32;;;;;;;;;;5068599;28;20119;-83
2022/07/12 03:49:33;;;;;;;75.90;72.68;;;;;;;;;;5069576;28;20157;-82
2022/07/12 03:51:59;;;;;;;73.13;70.07;;;;;;;;;;5071192;28;20403;-83
2022/07/12 03:54:25;;;;;;;76.15;72.90;;;;;;;;;;5074569;28;20035;-83
2022/07/12 03:59:35;;;;;;;73.95;70.90;;;;;;;;;;5065434;28;20086;-83
2022/07/12 04:02:02;;;;;;;73.45;70.35;;;;;;;;;;5067472;28;20131;-83
2022/07/12 04:04:28;;;;;;;79.10;75.80;;;;;;;;;;5063846;28;20028;-83
2022/07/12 04:06:54;;;;;;;77.28;73.97;;;;;;;;;;5061263;28;20040;-83
2022/07/12 04:09:20;;;;;;;74.68;71.57;;;;;;;;;;5068848;28;20108;-84
2022/07/12 04:11:46;;;;;;;77.43;74.13;;;;;;;;;;5061612;28;20040;-83
2022/07/12 04:14:12;;;;;;;70.80;67.72;;;;;;;;;;5068239;28;20016;-82
2022/07/12 04:16:38;;;;;;;81.32;77.88;;;;;;;;;;5065598;28;20051;-83
2022/07/12 04:19:09;;;;;;;76.13;72.82;;;;;;;;;;5063618;28;20102;-83
2022/07/12 04:21:35;;;;;;;83.00;79.43;;;;;;;;;;5062721;28;20036;-83
2022/07/12 04:24:01;;;;;;;75.47;72.28;;;;;;;;;;5066047;28;20025;-83
2022/07/12 04:26:27;;;;;;;74.07;70.78;;;;;;;;;;5078560;28;20517;-83
2022/07/12 04:28:53;;;;;;;77.38;74.10;;;;;;;;;;5063443;28;20017;-82
2022/07/12 04:31:19;;;;;;;81.82;78.32;;;;;;;;;;5062346;28;20039;-83
2022/07/12 04:33:45;;;;;;;72.97;69.88;;;;;;;;;;5066693;28;20098;-83
2022/07/12 04:36:11;;;;;;;4.15;3.95;;;;;;;;;;5069173;28;20075;-83
2022/07/12 04:38:37;;;;;;;12.05;11.52;;;;;;;;;;5071879;28;20033;-83
2022/07/12 04:41:03;;;;;;;5.78;5.53;;;;;;;;;;5072719;28;20032;-82
2022/07/12 04:43:29;;;;;;;15.40;14.77;;;;;;;;;;5063214;28;20047;-82
2022/07/12 04:45:55;;;;;;;14.52;13.65;;;;;;;;;;5064999;28;20056;-82
2022/07/12 04:48:21;;;;;;;3.72;3.53;;;;;;;;;;5073632;28;20051;-83
2022/07/12 04:50:47;;;;;;;3.85;3.65;;;;;;;;;;5070905;28;20025;-82
2022/07/12 04:53:16;;;;;;;4.30;4.00;;;19.40;73.00;;;;;;5066559;28;20041;-82
2022/07/12 04:55:42;;;;;;;4.82;3.00;;;;;;;;;;5066158;28;20498;-83
2022/07/12 04:58:08;;;;;;;9.38;3.70;;;;;;;;;;5065395;28;20074;-83
2022/07/12 05:00:34;;;;;;;3.45;3.28;;;;;;;;;;5064547;28;20055;-82
2022/07/12 05:03:00;;;;;;;3.45;3.25;;;;;;;;;;5066328;28;20495;-83
2022/07/12 05:05:26;;;;;;;4.55;3.13;;;;;;;;;;5067849;28;20032;-82
2022/07/12 05:07:52;;;;;;;4.53;3.30;;;;;;;;;;5068917;28;20031;-83
2022/07/12 05:10:18;;;;;;;3.33;3.05;;;;;;;;;;5068394;28;20516;-82
2022/07/12 05:12:44;;;;;;;3.35;3.08;;;;;;;;;;5064938;28;20037;-82
2022/07/12 05:15:10;;;;;;;4.28;2.88;;;;;;;;;;5065083;28;20120;-83
2022/07/12 05:17:36;;;;;;;3.35;3.15;;;;;;;;;;5078707;28;20682;-82
2022/07/12 05:20:02;;;;;;;3.55;3.25;;;;;;;;;;5063929;28;20044;-83
2022/07/12 05:22:28;;;;;;;3.85;2.70;;;;;;;;;;5067326;28;20046;-83
2022/07/12 05:24:54;;;;;;;3.10;2.90;;;;;;;;;;5066846;28;20028;-85
2022/07/12 05:27:20;;;;;;;5.60;2.70;;;;;;;;;;5064498;28;20410;-83
2022/07/12 05:29:46;;;;;;;2.58;2.38;;;;;;;;;;5072412;28;20028;-84
2022/07/12 05:32:12;;;;;;;6.68;2.97;;;;;;;;;;5072171;28;20047;-83
2022/07/12 05:34:38;;;;;;;2.90;2.78;;;;;;;;;;5067024;28;20058;-89
2022/07/12 05:37:05;;;;;;;6.32;3.53;;;;;;;;;;5068979;28;20044;-84
2022/07/12 05:39:31;;;;;;;2.13;2.03;;;;;;;;;;5066014;28;20024;-85
2022/07/12 05:41:57;;;;;;;2.85;2.65;;;;;;;;;;5068334;28;20040;-85
2022/07/12 05:44:23;;;;;;;2.90;2.70;;;;;;;;;;5064105;28;20517;-84
2022/07/12 05:46:49;;;;;;;15.80;2.85;;;;;;;;;;5069738;28;20047;-84
2022/07/12 05:49:15;;;;;;;3.90;2.45;;;;;;;;;;5064383;28;20049;-84
2022/07/12 05:54:26;;;;;;;2.38;2.28;;;;;;;;;;5070327;28;20054;-83
2022/07/12 05:56:52;;;;;;;4.45;4.15;;;;;;;;;;5070092;28;20545;-83
2022/07/12 05:59:18;;;;;;;10.20;9.70;;;;;;;;;;5066580;28;20021;-82
2022/07/12 06:01:44;;;;;;;11.32;10.80;;;;;;;;;;5076997;28;20098;-83
2022/07/12 06:04:10;;;;;;;10.38;9.88;;;;;;;;;;5066355;28;20020;-83
2022/07/12 06:06:36;;;;;;;9.63;9.13;;;;;;;;;;5068732;28;20039;-83
2022/07/12 06:09:03;;;;;;;10.60;10.10;;;21.10;71.80;;;;;;5065434;28;20097;-83
2022/07/12 06:11:29;;;;;;;2.30;1.55;;;;;;;;;;5066200;28;20064;-82
2022/07/12 06:13:55;;;;;;;9.57;9.02;;;;;;;;;;5065539;28;20402;-83
2022/07/12 06:16:21;;;;;;;1.70;1.60;;;;;;;;;;5064417;28;20043;-83
2022/07/12 06:18:47;;;;;;;9.23;8.80;;;;;;;;;;5070316;28;20028;-83
2022/07/12 06:21:13;;;;;;;1.45;1.35;;;;;;;;;;5066070;28;20037;-83
2022/07/12 06:23:39;;;;;;;1.80;1.70;;;;;;;;;;5065008;28;20120;-83
2022/07/12 06:26:05;;;;;;;9.25;8.75;;;;;;;;;;5063966;28;20061;-83
2022/07/12 06:28:31;;;;;;;3.85;3.47;;;;;;;;;;5070544;28;20020;-83
2022/07/12 06:30:57;;;;;;;1.77;1.48;;;;;;;;;;5068568;28;20020;-83
2022/07/12 06:33:23;;;;;;;3.35;1.67;;;;;;;;;;5074444;28;20552;-84
2022/07/12 06:35:49;;;;;;;1.50;1.40;;;;;;;;;;5063537;28;20032;-83
2022/07/12 06:38:16;;;;;;;1.95;1.73;;;;;;;;;;5064154;28;20036;-83
2022/07/12 06:40:42;;;;;;;1.35;1.25;;;;;;;;;;5064035;28;20025;-83
2022/07/12 06:43:12;;;;;;;1.77;1.42;;;22.40;67.20;;;;;;5067450;28;20041;-83
2022/07/12 06:45:38;;;;;;;3.40;1.45;;;;;;;;;;5068415;28;20032;-83
2022/07/12 06:48:05;;;;;;;1.23;1.10;;;;;;;;;;5063179;28;20044;-82
2022/07/12 06:50:31;;;;;;;4.35;1.17;;;;;;;;;;5067181;28;20490;-83
2022/07/12 06:52:57;;;;;;;1.67;1.58;;;;;;;;;;5067082;28;20048;-83
2022/07/12 06:55:23;;;;;;;6.43;1.53;;;;;;;;;;5069451;28;20035;-84
2022/07/12 06:57:49;;;;;;;1.65;0.90;;;;;;;;;;5068355;28;20449;-83
2022/07/12 07:00:16;;;;;;;0.87;0.40;;;;;;;;;;5066150;28;20055;-82
2022/07/12 07:02:42;;;;;;;0.68;0.45;;;;;;;;;;5067089;28;20028;-83
2022/07/12 07:05:08;;;;;;;1.52;1.15;;;29.10;51.30;;;;;;5066703;28;20035;-83
2022/07/12 07:07:33;;;;;;;;;;;30.10;49.40;;;;;;5072599;28;20036;-83
2022/07/12 07:10:00;;;;;;;1.10;0.63;;;;;;;;;;5067044;28;19999;-84
2022/07/12 07:12:26;;;;;;;0.75;0.40;;;;;;;;;;5069816;28;20028;-84
2022/07/12 07:14:52;;;;;;;2.13;0.38;;;;;;;;;;5069963;28;20517;-83
2022/07/12 07:17:19;;;;;;;2.67;0.60;;;;;;;;;;5063318;28;20461;-84
2022/07/12 07:19:45;;;;;;;1.08;0.65;;;;;;;;;;5065176;28;20410;-84
2022/07/12 07:22:11;;;;;;;2.88;0.50;;;;;;;;;;5066229;28;20478;-84
2022/07/12 07:24:38;;;;;;;2.42;0.30;;;;;;;;;;5068131;28;20036;-84
2022/07/12 07:27:04;;;;;;;0.60;0.30;;;;;;;;;;5071806;28;20174;-84
2022/07/12 07:32:14;;;;;;;0.45;0.32;;;;;;;;;;5058915;28;20426;-84
2022/07/12 07:34:41;;;;;;;2.15;0.30;;;;;;;;;;5075423;28;20032;-84
2022/07/12 07:37:07;;;;;;;0.52;0.40;;;;;;;;;;5064134;28;20449;-84
2022/07/12 07:39:34;;;;;;;0.80;0.77;;;;;;;;;;5066554;28;20029;-84
2022/07/12 07:42:00;;;;;;;0.40;0.30;;;;;;;;;;5064880;28;20036;-84
2022/07/12 07:44:25;;;;;;;1.30;0.55;;;34.80;58.20;;;;;;5064864;28;20067;-84
2022/07/12 07:46:51;;;;;;;0.45;0.22;;;;;;;;;;5064565;28;20218;-84
2022/07/12 07:49:17;;;;;;;0.30;0.22;;;;;;;;;;5066423;28;20025;-84
2022/07/12 07:51:43;;;;;;;4.90;0.47;;;;;;;;;;5068619;28;20024;-84
2022/07/12 07:54:09;;;;;;;1.90;0.65;;;;;;;;;;5067017;28;20027;-84
2022/07/12 07:56:35;;;;;;;0.88;0.30;;;36.10;55.90;;;;;;5062465;28;20036;-84
2022/07/12 07:59:01;;;;;;;0.35;0.30;;;;;;;;;;5067834;28;20056;-84
2022/07/12 08:01:42;;;;;;;1.58;0.30;;;;;;;;;;5062767;28;20448;-84
2022/07/12 08:04:09;;;;;;;0.30;0.30;;;37.40;36.50;;;;;;5065030;28;20031;-85
2022/07/12 08:06:36;;;;;;;0.57;0.30;;;;;;;;;;5066607;28;20103;-85
2022/07/12 08:09:02;;;;;;;2.30;0.40;;;;;;;;;;5065407;28;20028;-84
2022/07/12 08:11:28;;;;;;;1.98;0.43;;;37.90;34.10;;;;;;5069501;28;20448;-85
2022/07/12 08:13:54;;;;;;;0.30;0.25;;;;;;;;;;5064394;28;20135;-84
2022/07/12 08:16:20;;;;;;;0.20;0.17;;;;;;;;;;5065955;28;20121;-84
2022/07/12 08:18:46;;;;;;;2.83;0.20;;;;;;;;;;5066084;28;20522;-85
2022/07/12 08:21:12;;;;;;;0.25;0.25;;;;;;;;;;5065140;28;20013;-84
2022/07/12 08:23:38;;;;;;;2.33;0.20;;;;;;;;;;5070666;28;20024;-85
2022/07/12 08:26:04;;;;;;;1.27;0.85;;;;;;;;;;5069574;28;20776;-84
2022/07/12 08:28:30;;;;;;;0.57;0.30;;;;;;;;;;5073030;28;20032;-84
2022/07/12 08:30:56;;;;;;;0.10;0.10;;;;;;;;;;5069777;28;20013;-84
2022/07/12 08:33:22;;;;;;;1.35;0.22;;;;;;;;;;5067055;28;20051;-84
2022/07/12 08:35:48;;;;;;;0.40;0.20;;;;;;;;;;5063769;28;20061;-84
2022/07/12 08:38:15;;;;;;;0.15;0.10;;;;;;;;;;5068521;28;20107;-84
2022/07/12 08:40:41;;;;;;;1.17;0.20;;;;;;;;;;5074950;28;20027;-83
2022/07/12 08:43:07;;;;;;;0.55;0.10;;;;;;;;;;5069897;28;20516;-85
2022/07/12 08:45:34;;;;;;;3.30;0.20;;;;;;;;;;5067143;28;20028;-84
2022/07/12 08:48:00;;;;;;;0.10;0.10;;;;;;;;;;5072997;28;20044;-85
2022/07/12 08:50:28;;;;;;;1.38;0.25;;;;;;;;;;5065256;28;20060;-84
2022/07/12 08:52:55;;;;;;;2.60;0.40;;;39.50;31.90;;;;;;5072819;28;20031;-83
2022/07/12 08:55:34;;;;;;;0.55;0.20;;;39.40;32.80;;;;;;5070490;28;20028;-83
2022/07/12 08:58:06;;;;;;;0.60;0.20;;;;;;;;;;5070433;28;20048;-84
2022/07/12 09:00:32;;;;;;;1.75;0.20;;;39.40;31.80;;;;;;5075962;28;20052;-85
2022/07/12 09:02:59;;;;;;;1.23;0.20;;;;;;;;;;5068490;28;20032;-84
2022/07/12 09:05:30;;;;;;;3.30;0.40;;;40.00;31.60;;;;;;5065191;28;20389;-84
2022/07/12 09:08:07;;;;;;;2.67;0.40;;;39.90;32.10;;;;;;5058860;28;20043;-85
2022/07/12 09:10:34;;;;;;;0.63;0.20;;;39.50;31.70;;;;;;5065786;28;20027;-85
2022/07/12 09:13:00;;;;;;;0.50;0.20;;;;;;;;;;5066383;28;20078;-84
2022/07/12 09:15:27;;;;;;;0.55;0.30;;;;;;;;;;5076651;28;20016;-85
2022/07/12 09:18:01;;;;;;;2.40;0.30;;;39.50;32.40;;;;;;5066399;28;20131;-84
2022/07/12 09:20:32;;;;;;;1.08;0.35;;;40.10;33.70;;;;;;5068745;28;20028;-83
2022/07/12 09:23:00;;;;;;;0.30;0.20;;;39.30;31.80;;;;;;5066616;28;20437;-84
2022/07/12 09:25:26;;;;;;;2.35;0.38;;;;;;;;;;5072658;28;20025;-85
2022/07/12 09:27:57;;;;;;;0.47;0.40;;;39.60;31.80;;;;;;5073485;28;20043;-84
2022/07/12 09:30:27;;;;;;;1.25;0.30;;;39.30;31.50;;;;;;5065473;28;20070;-84
2022/07/12 09:38:36;;;;;;;1.23;0.10;;;39.10;31.70;;;;;;5066913;28;20465;-84
2022/07/12 09:41:03;;;;;;;0.50;0.35;;;;;;;;;;5067469;28;20398;-84
2022/07/12 09:43:29;;;;;;;0.80;0.20;;;;;;;;;;5064692;28;20047;-84
2022/07/12 09:45:56;;;;;;;0.77;0.30;;;;;;;;;;5071538;28;20525;-84
2022/07/12 09:48:22;;;;;;;0.50;0.47;;;38.90;32.00;;;;;;5066804;28;20494;-85
2022/07/12 09:50:50;;;;;;;0.63;0.20;;;39.20;31.40;;;;;;5067155;28;20028;-84
2022/07/12 09:53:21;;;;;;;0.60;0.25;;;39.20;31.30;;;;;;5066362;28;20035;-83
2022/07/12 09:55:50;;;;;;;0.50;0.10;;;39.50;31.00;;;;;;5068270;28;20531;-84
2022/07/12 09:58:23;;;;;;;2.30;0.35;;;39.60;31.00;;;;;;5067741;28;20044;-84
2022/07/12 10:00:52;;;;;;;0.28;0.17;;;39.40;30.30;;;;;;5076540;28;20116;-84
2022/07/12 10:03:21;;;;;;;0.20;0.15;;;39.10;30.20;;;;;;5064602;28;20060;-86
2022/07/12 10:05:47;;;;;;;0.77;0.40;;;;;;;;;;5063886;28;20074;-84
2022/07/12 10:08:13;;;;;;;;;;;39.20;30.80;;;;;;5067117;28;20025;-85
2022/07/12 10:10:39;;;;;;;;;;;39.80;30.80;;;;;;5066579;28;19962;-84
2022/07/12 10:13:04;;;;;;;;;;;40.00;30.10;;;;;;5069720;28;19914;-84
2022/07/12 10:15:30;;;;;;;;;;;40.10;30.00;;;;;;5068047;28;19909;-84
2022/07/12 10:17:58;;;;;;;0.20;0.13;;;;;;;;;;5068562;28;19919;-84
2022/07/12 10:20:26;;;;;;;0.25;0.10;;;;;;;;;;5068681;28;20033;-84
2022/07/12 10:23:15;;;;;;;0.90;0.20;;;39.30;29.20;;;;;;5066092;28;20047;-84
2022/07/12 10:25:41;;;;;;;1.02;0.20;;;;;;;;;;5063735;28;20491;-85
2022/07/12 10:28:07;;;;;;;2.33;0.10;;;;;;;;;;5066942;28;20073;-84
2022/07/12 10:30:50;;;;;;;0.35;0.28;;;39.40;31.40;;;;;;5065447;28;20079;-84
2022/07/12 10:33:16;;;;;;;0.20;0.15;;;;;;;;;;5072573;28;20063;-85
2022/07/12 10:36:01;;;;;;;0.50;0.17;;;39.90;31.40;;;;;;5065828;28;20024;-84
2022/07/12 10:38:27;;;;;;;0.30;0.10;;;;;;;;;;5063475;28;20482;-85
2022/07/12 10:40:53;;;;;;;;;;;40.10;29.60;;;;;;5067102;28;20125;-85
2022/07/12 10:44:04;;;;;;;1.58;0.15;;;40.70;30.60;;;;;;5062035;28;20395;-84
2022/07/12 10:46:23;;;;;;;0.25;0.20;;;40.90;29.60;;;;;;5068852;28;20063;-85
2022/07/12 10:48:49;;;;;;;0.32;0.28;;;;;;;;;;5080416;28;20035;-85
2022/07/12 10:51:16;;;;;;;;;;;40.80;29.90;;;;;;5065152;28;20037;-85
2022/07/12 10:53:44;;;;;;;0.40;0.20;;;41.00;29.40;;;;;;5069080;28;19908;-84
2022/07/12 10:56:21;;;;;;;0.60;0.10;;;;;;;;;;5068691;28;20444;-85
2022/07/12 10:58:55;;;;;;;0.55;0.10;;;40.70;29.20;;;;;;5065568;28;20086;-84
2022/07/12 11:01:21;;;;;;;1.90;0.10;;;;;;;;;;5065197;28;20024;-85
2022/07/12 11:03:47;;;;;;;0.50;0.30;;;;;;;;;;5065020;28;20031;-85
2022/07/12 11:06:19;;;;;;;0.10;0.10;;;39.20;30.40;;;;;;5061100;28;20107;-85
2022/07/12 11:08:51;;;;;;;0.20;0.10;;;;;;;;;;5061657;28;20043;-84
2022/07/12 11:11:18;;;;;;;2.75;0.15;;;38.10;31.70;;;;;;5068942;28;20159;-86
2022/07/12 11:13:44;;;;;;;12.00;1.38;;;;;;;;;;5074522;28;20047;-84
2022/07/12 11:16:11;;;;;;;0.32;0.17;;;;;;;;;;5063112;28;20052;-84
2022/07/12 11:18:37;;;;;;;0.22;0.10;;;;;;;;;;5066021;28;20070;-85
2022/07/12 11:21:04;;;;;;;0.85;0.30;;;;;;;;;;5067265;28;20019;-85
2022/07/12 11:23:30;;;;;;;0.55;0.30;;;35.20;32.60;;;;;;5064620;28;20036;-84
2022/07/12 11:25:58;;;;;;;0.57;0.20;;;34.90;34.20;;;;;;5062159;28;20021;-84
2022/07/12 11:28:33;;;;;;;0.35;0.30;;;34.10;33.90;;;;;;5064510;28;20506;-84
2022/07/12 11:31:04;;;;;;;1.05;0.70;;;33.80;34.20;;;;;;5065527;28;20115;-84
2022/07/12 11:33:32;;;;;;;4.38;0.60;;;33.50;33.50;;;;;;5074778;28;20050;-84
2022/07/12 11:36:00;;;;;;;1.20;0.10;;;33.60;52.40;;;;;;5066324;28;20030;-84
2022/07/12 11:38:26;;;;;;;0.30;0.10;;;;;;;;;;5067779;28;20119;-84
2022/07/12 11:40:59;;;;;;;1.13;0.45;;;32.80;32.60;;;;;;5065451;28;20434;-84
2022/07/12 11:43:26;;;;;;;0.35;0.17;;;32.80;34.70;;;;;;5063671;28;20035;-84
2022/07/12 11:45:53;;;;;;;1.25;0.25;;;37.40;38.50;;;;;;5066793;28;20060;-85
2022/07/12 11:48:19;;;;;;;;;;;;;;;;;;5064243;28;21337;-84
2022/07/12 11:50:45;;;;;;;0.40;0.20;;;;;;;;;;5065645;28;20075;-84
2022/07/12 11:53:21;;;;;;;0.30;0.30;;;31.80;34.80;;;;;;5068979;28;20115;-84
2022/07/12 11:55:49;;;;;;;0.17;0.17;;;;;;;;;;5073189;28;20514;-84
2022/07/12 11:58:16;;;;;;;0.22;0.22;;;;;;;;;;5070115;28;20298;-83
2022/07/12 12:00:43;;;;;;;0.80;0.47;;;31.40;35.90;;;;;;5071083;28;20102;-84
2022/07/12 12:03:09;;;;;;;;;;;;;;;;;;5066128;28;20058;-84
2022/07/12 12:05:35;;;;;;;0.30;0.30;;;;;;;;;;5068955;28;19908;-83
2022/07/12 12:08:02;;;;;;;0.85;0.32;;;31.00;37.20;;;;;;5068263;28;20479;-84
2022/07/12 12:10:28;;;;;;;0.40;0.40;;;;;;;;;;5076487;28;20063;-84
2022/07/12 12:12:55;;;;;;;0.60;0.50;;;;;;;;;;5078167;28;20115;-83
2022/07/12 12:15:23;;;;;;;0.98;0.25;;;30.80;37.00;;;;;;5071701;28;20021;-83
2022/07/12 12:17:53;;;;;;;0.57;0.38;;;;;;;;;;5068195;28;20064;-84
2022/07/12 12:20:22;;;;;;;4.40;0.80;;;30.40;37.80;;;;;;5068002;28;20111;-83
2022/07/12 12:22:53;;;;;;;0.52;0.30;;;;;;;;;;5067444;28;20040;-84
2022/07/12 12:25:19;;;;;;;1.23;0.55;;;;;;;;;;5069716;28;20033;-83
2022/07/12 12:27:49;;;;;;;1.27;0.80;;;;;;;;;;5072237;28;20020;-83
2022/07/12 12:30:17;;;;;;;0.80;0.52;;;30.50;38.90;;;;;;5069111;28;20036;-83
2022/07/12 12:32:49;;;;;;;3.40;0.40;;;;;;;;;;5064932;28;20055;-84
2022/07/12 12:35:17;;;;;;;0.85;0.75;;;30.00;38.70;;;;;;5067093;28;20063;-83
2022/07/12 12:37:53;;;;;;;1.15;0.50;;;;;;;;;;5067427;28;20045;-83
2022/07/12 12:40:21;;;;;;;0.43;0.43;;;30.10;40.00;;;;;;5069837;28;20033;-83
2022/07/12 12:42:47;;;;;;;0.77;0.55;;;;;;;;;;5079306;28;20020;-83
2022/07/12 12:45:21;;;;;;;0.82;0.70;;;30.20;40.60;;;;;;5073214;28;20506;-85
2022/07/12 12:47:58;;;;;;;1.00;0.70;;;;;;;;;;5071508;28;20135;-84
2022/07/12 12:50:38;;;;;;;0.90;0.50;;;30.20;39.80;;;;;;5061695;28;20056;-83
2022/07/12 12:53:08;;;;;;;1.88;0.50;;;30.20;40.10;;;;;;5062107;28;20087;-84
2022/07/12 12:55:34;;;;;;;1.27;0.55;;;;;;;;;;5068142;28;20127;-85
2022/07/12 12:58:01;;;;;;;0.50;0.30;;;;;;;;;;5071345;28;20071;-83
2022/07/12 13:00:27;;;;;;;1.52;0.55;;;;;;;;;;5066298;28;20021;-83
2022/07/12 13:02:53;;;;;;;0.53;0.53;;;;;;;;;;5071553;28;21271;-84
2022/07/12 13:05:19;;;;;;;0.40;0.40;;;;;;;;;;5070743;28;20028;-84
2022/07/12 13:07:45;;;;;;;0.43;0.38;;;;;;;;;;5075410;28;20115;-83
2022/07/12 13:10:11;;;;;;;1.02;0.50;;;;;;;;;;5069231;28;20020;-84
2022/07/12 13:12:37;;;;;;;2.35;0.60;;;;;;;;;;5065262;28;20025;-84
2022/07/12 13:15:03;;;;;;;0.63;0.57;;;;;;;;;;5067960;28;20410;-83
2022/07/12 13:17:30;;;;;;;1.23;0.40;;;;;;;;;;5067126;28;20071;-83
2022/07/12 13:19:56;;;;;;;0.68;0.50;;;30.10;61.10;;;;;;5078296;28;20099;-84
2022/07/12 13:22:22;;;;;;;0.93;0.85;;;;;;;;;;5068708;28;20136;-84
2022/07/12 13:24:49;;;;;;;0.68;0.60;;;;;;;;;;5074229;28;20032;-84
2022/07/12 13:27:15;;;;;;;0.80;0.70;;;;;;;;;;5067696;28;20036;-83
2022/07/12 13:29:41;;;;;;;0.93;0.60;;;;;;;;;;5065190;28;20395;-83
2022/07/12 13:32:07;;;;;;;2.10;0.63;;;;;;;;;;5065028;28;20021;-84
2022/07/12 13:34:33;;;;;;;0.30;0.30;;;;;;;;;;5068535;28;20031;-85
2022/07/12 13:36:59;;;;;;;0.70;0.70;;;;;;;;;;5065569;28;20029;-85
2022/07/12 13:42:10;;;;;;;2.45;0.63;;;29.30;54.30;;;;;;5065590;28;20039;-84
2022/07/12 13:44:36;;;;;;;3.05;0.82;;;;;;;;;;5062627;28;20036;-85
2022/07/12 13:47:02;;;;;;;0.60;0.60;;;;;;;;;;5069158;28;20131;-83
2022/07/12 13:49:28;;;;;;;1.05;0.65;;;;;;;;;;5069820;28;20074;-84
2022/07/12 13:51:54;;;;;;;1.38;0.60;;;;;;;;;;5067404;28;20433;-84
2022/07/12 13:54:20;;;;;;;0.70;0.60;;;;;;;;;;5066949;28;20574;-84
2022/07/12 13:56:49;;;;;;;2.05;0.68;;;30.10;44.50;;;;;;5066455;28;20167;-84
2022/07/12 13:59:15;;;;;;;0.70;0.50;;;;;;;;;;5069270;28;20068;-84
2022/07/12 14:01:41;;;;;;;2.10;0.80;;;;;;;;;;5066490;28;20486;-84
2022/07/12 14:04:07;;;;;;;1.42;0.50;;;;;;;;;;5068648;28;20036;-83
2022/07/12 14:06:33;;;;;;;0.45;0.40;;;;;;;;;;5074350;28;20024;-85
2022/07/12 14:08:59;;;;;;;1.73;0.60;;;;;;;;;;5068121;28;20107;-84
2022/07/12 14:11:25;;;;;;;0.85;0.63;;;;;;;;;;5065761;28;20024;-84
2022/07/12 14:13:51;;;;;;;1.48;0.73;;;;;;;;;;5066308;28;20505;-84
2022/07/12 14:16:18;;;;;;;3.30;0.57;;;29.10;62.20;;;;;;5075049;28;20119;-84
2022/07/12 14:18:44;;;;;;;;;;;29.40;42.90;;;;;;5065673;28;20032;-84
2022/07/12 14:21:10;;;;;;;1.37;1.00;;;;;;;;;;5070109;28;19914;-83
2022/07/12 14:23:39;;;;;;;1.03;0.60;;;29.40;52.60;;;;;;5066688;28;20028;-84